Terminal Aerodrome Forecast
Issued by NWS Charleston, WV

Current Version | Previous Version | Graphics & Text | Print | Product List | Glossary On
Versions: 1 2 3 4 5 6 7 8 9 10 11 12 13 14 15 16 17 18 19 20 21 22
578
FTUS41 KRLX 101135
TAFEKN
TAF
KEKN 101135Z 1012/1112 25005KT P6SM -SHSN BKN025 OVC035
     FM101600 27006KT P6SM BKN035
     FM102300 VRB03KT P6SM SCT150
     FM110900 VRB03KT P6SM -SN OVC040=

USA.gov is the U.S. government's official web portal to all federal, state and local government web resources and services.